Dancy, Wisconsin
Current Conditions -  °F | °C
As of 4:15 AM on Sunday 25 Jan 2015 (Local Time) from KCWA Reporting Station
Overcast Overcast  
Wind Chill:   Ceiling: 2800
Heat Index: 21°   Visibility: 10mi
Dew Point: 18°   Wind: 15mph
Humidity: 86%   Direction: 60°ENE
Pressure: 29.82"   Gusts: NA
Location:  44.7605°N, 89.5918°W
Report Text: KCWA 251015Z AUTO 06013KT 10SM SCT021 BKN028 OVC047 M06/M08 A2982 RMK AO2
Loading
Personal Weather Stations






























Interactive Weather Map New forecast layout! Learn more

10-Day Weather Forecast

Advertisements
Track Severe Weather on mobile